EZY5544 LEPA-LEBL
Flight info
| Callsign | EZY5544 |
|---|---|
| Flight time | 0h 32m |
| Altitude | 16000 |
| Route | ESPOR L2 NEPAL |
| Aircraft | A20N/M-SDE2E3FGHIRWXY/LB1 |
Departure
| Time | 2026-05-06 18:58 |
|---|---|
| Airport | Palma de Mallorca Airport (LEPA) |
Arrival
| Time | 2026-05-06 19:30 |
|---|---|
| Airport | Josep Tarradellas Barcelona-El Prat Airport (LEBL) |
| Time | Latitude | Longitude | Altitude | Speed | Heading |
|---|---|---|---|---|---|
| 2026-05-06 18:08 | 39.55125 | 2.72969 | 17 ft | 0 kts | 166° |
| 2026-05-06 18:44 | 39.55127 | 2.72968 | 18 ft | 1 kts | 166° |
| 2026-05-06 18:44 | 39.55144 | 2.72963 | 17 ft | 3 kts | 166° |
| 2026-05-06 18:44 | 39.55175 | 2.72952 | 16 ft | 5 kts | 166° |
| 2026-05-06 18:45 | 39.55192 | 2.72947 | 16 ft | 0 kts | 170° |
| 2026-05-06 18:45 | 39.55198 | 2.72945 | 16 ft | 1 kts | 128° |
| 2026-05-06 18:45 | 39.55200 | 2.72936 | 16 ft | 0 kts | 69° |
| 2026-05-06 18:45 | 39.55199 | 2.72932 | 16 ft | 0 kts | 49° |
| 2026-05-06 18:46 | 39.55195 | 2.72926 | 16 ft | 0 kts | 58° |
| 2026-05-06 18:49 | 39.55196 | 2.72927 | 16 ft | 0 kts | 58° |
| 2026-05-06 18:50 | 39.55197 | 2.72931 | 16 ft | 0 kts | 58° |
| 2026-05-06 18:50 | 39.55203 | 2.72942 | 16 ft | 2 kts | 59° |
| 2026-05-06 18:50 | 39.55217 | 2.72971 | 16 ft | 5 kts | 59° |
| 2026-05-06 18:50 | 39.55245 | 2.73033 | 17 ft | 9 kts | 59° |
| 2026-05-06 18:51 | 39.55283 | 2.73110 | 20 ft | 10 kts | 58° |
| 2026-05-06 18:51 | 39.55326 | 2.73199 | 22 ft | 12 kts | 59° |
| 2026-05-06 18:51 | 39.55376 | 2.73307 | 23 ft | 15 kts | 59° |
| 2026-05-06 18:51 | 39.55434 | 2.73429 | 25 ft | 16 kts | 58° |
| 2026-05-06 18:52 | 39.55491 | 2.73550 | 25 ft | 12 kts | 59° |
| 2026-05-06 18:52 | 39.55462 | 2.73624 | 28 ft | 11 kts | 149° |
| 2026-05-06 18:52 | 39.55396 | 2.73677 | 31 ft | 11 kts | 148° |
| 2026-05-06 18:52 | 39.55329 | 2.73730 | 35 ft | 11 kts | 148° |
| 2026-05-06 18:53 | 39.55259 | 2.73786 | 37 ft | 12 kts | 148° |
| 2026-05-06 18:53 | 39.55182 | 2.73845 | 40 ft | 13 kts | 149° |
| 2026-05-06 18:53 | 39.55095 | 2.73914 | 40 ft | 16 kts | 149° |
| 2026-05-06 18:53 | 39.54990 | 2.73998 | 40 ft | 18 kts | 149° |
| 2026-05-06 18:54 | 39.54871 | 2.74091 | 35 ft | 20 kts | 148° |
| 2026-05-06 18:54 | 39.54758 | 2.74061 | 35 ft | 19 kts | 238° |
| 2026-05-06 18:54 | 39.54687 | 2.73911 | 36 ft | 19 kts | 239° |
| 2026-05-06 18:54 | 39.54616 | 2.73761 | 36 ft | 19 kts | 238° |
| 2026-05-06 18:55 | 39.54545 | 2.73611 | 36 ft | 19 kts | 239° |
| 2026-05-06 18:55 | 39.54474 | 2.73461 | 36 ft | 19 kts | 239° |
| 2026-05-06 18:55 | 39.54402 | 2.73312 | 36 ft | 19 kts | 238° |
| 2026-05-06 18:55 | 39.54340 | 2.73182 | 36 ft | 10 kts | 224° |
| 2026-05-06 18:56 | 39.54288 | 2.73204 | 36 ft | 10 kts | 112° |
| 2026-05-06 18:56 | 39.54278 | 2.73299 | 36 ft | 11 kts | 93° |
| 2026-05-06 18:56 | 39.54273 | 2.73407 | 36 ft | 12 kts | 93° |
| 2026-05-06 18:56 | 39.54283 | 2.73506 | 36 ft | 2 kts | 60° |
| 2026-05-06 18:57 | 39.54285 | 2.73512 | 36 ft | 1 kts | 60° |
| 2026-05-06 18:57 | 39.54402 | 2.73758 | 34 ft | 72 kts | 59° |
| 2026-05-06 18:57 | 39.54793 | 2.74582 | 26 ft | 141 kts | 58° |
| 2026-05-06 18:57 | 39.55373 | 2.75814 | 365 ft | 166 kts | 60° |
| 2026-05-06 18:58 | 39.55954 | 2.77067 | 1110 ft | 166 kts | 60° |
| 2026-05-06 18:58 | 39.56549 | 2.78313 | 1953 ft | 163 kts | 59° |
| 2026-05-06 18:58 | 39.57183 | 2.79606 | 2469 ft | 178 kts | 59° |
| 2026-05-06 18:58 | 39.57870 | 2.80993 | 2989 ft | 192 kts | 59° |
| 2026-05-06 18:59 | 39.58620 | 2.82542 | 3462 ft | 213 kts | 59° |
| 2026-05-06 18:59 | 39.59432 | 2.84217 | 4135 ft | 224 kts | 58° |
| 2026-05-06 18:59 | 39.60244 | 2.85912 | 5030 ft | 226 kts | 58° |
| 2026-05-06 18:59 | 39.61060 | 2.87652 | 5829 ft | 230 kts | 58° |
| 2026-05-06 19:00 | 39.61882 | 2.89449 | 6077 ft | 231 kts | 59° |
| 2026-05-06 19:00 | 39.62691 | 2.91243 | 6089 ft | 235 kts | 56° |
| 2026-05-06 19:00 | 39.63917 | 2.92747 | 6046 ft | 258 kts | 23° |
| 2026-05-06 19:00 | 39.65097 | 2.93125 | 6029 ft | 264 kts | 360° |
| 2026-05-06 19:01 | 39.67326 | 2.92010 | 6022 ft | 267 kts | 315° |
| 2026-05-06 19:01 | 39.68506 | 2.90083 | 6407 ft | 276 kts | 306° |
| 2026-05-06 19:01 | 39.69643 | 2.88115 | 7428 ft | 277 kts | 307° |
| 2026-05-06 19:01 | 39.70843 | 2.86202 | 8486 ft | 277 kts | 309° |
| 2026-05-06 19:02 | 39.72111 | 2.84318 | 9425 ft | 281 kts | 311° |
| 2026-05-06 19:02 | 39.73436 | 2.82448 | 10318 ft | 285 kts | 311° |
| 2026-05-06 19:02 | 39.74829 | 2.80540 | 10941 ft | 299 kts | 312° |
| 2026-05-06 19:02 | 39.76308 | 2.78552 | 11421 ft | 317 kts | 312° |
| 2026-05-06 19:03 | 39.77896 | 2.76442 | 11858 ft | 335 kts | 313° |
| 2026-05-06 19:03 | 39.79576 | 2.74222 | 12241 ft | 354 kts | 313° |
| 2026-05-06 19:03 | 39.81336 | 2.71905 | 12576 ft | 372 kts | 313° |
| 2026-05-06 19:03 | 39.83210 | 2.69441 | 12895 ft | 389 kts | 313° |
| 2026-05-06 19:04 | 39.85121 | 2.66934 | 13456 ft | 396 kts | 313° |
| 2026-05-06 19:04 | 39.87078 | 2.64366 | 14183 ft | 400 kts | 312° |
| 2026-05-06 19:04 | 39.89014 | 2.61824 | 14877 ft | 403 kts | 312° |
| 2026-05-06 19:04 | 39.90991 | 2.59223 | 15500 ft | 406 kts | 312° |
| 2026-05-06 19:05 | 39.93000 | 2.56575 | 15853 ft | 407 kts | 312° |
| 2026-05-06 19:05 | 39.94971 | 2.53975 | 15927 ft | 407 kts | 312° |
| 2026-05-06 19:05 | 39.96961 | 2.51345 | 15934 ft | 406 kts | 312° |
| 2026-05-06 19:05 | 39.98957 | 2.48706 | 15939 ft | 406 kts | 312° |
| 2026-05-06 19:06 | 40.00941 | 2.46081 | 15939 ft | 406 kts | 312° |
| 2026-05-06 19:06 | 40.02933 | 2.43443 | 15938 ft | 406 kts | 312° |
| 2026-05-06 19:06 | 40.04905 | 2.40829 | 15939 ft | 406 kts | 312° |
| 2026-05-06 19:06 | 40.06872 | 2.38220 | 15936 ft | 406 kts | 312° |
| 2026-05-06 19:07 | 40.08150 | 2.36522 | 15939 ft | 407 kts | 312° |
| 2026-05-06 19:07 | 40.10148 | 2.33865 | 15940 ft | 407 kts | 311° |
| 2026-05-06 19:07 | 40.12806 | 2.30331 | 15936 ft | 406 kts | 312° |
| 2026-05-06 19:07 | 40.14784 | 2.27706 | 15934 ft | 406 kts | 311° |
| 2026-05-06 19:08 | 40.16755 | 2.25083 | 15935 ft | 406 kts | 311° |
| 2026-05-06 19:08 | 40.18729 | 2.22449 | 15936 ft | 406 kts | 311° |
| 2026-05-06 19:08 | 40.20718 | 2.19790 | 15937 ft | 405 kts | 311° |
| 2026-05-06 19:08 | 40.22694 | 2.17146 | 15937 ft | 406 kts | 311° |
| 2026-05-06 19:09 | 40.24652 | 2.14529 | 15936 ft | 406 kts | 311° |
| 2026-05-06 19:09 | 40.26709 | 2.11942 | 15932 ft | 407 kts | 317° |
| 2026-05-06 19:09 | 40.29016 | 2.09847 | 15934 ft | 410 kts | 327° |
| 2026-05-06 19:09 | 40.31639 | 2.08235 | 15937 ft | 413 kts | 336° |
| 2026-05-06 19:10 | 40.34363 | 2.07038 | 15941 ft | 413 kts | 339° |
| 2026-05-06 19:10 | 40.37112 | 2.05911 | 15942 ft | 414 kts | 340° |
| 2026-05-06 19:10 | 40.39864 | 2.04792 | 15938 ft | 414 kts | 340° |
| 2026-05-06 19:10 | 40.42580 | 2.03681 | 15933 ft | 414 kts | 340° |
| 2026-05-06 19:11 | 40.45322 | 2.02550 | 15935 ft | 414 kts | 340° |
| 2026-05-06 19:11 | 40.48096 | 2.01399 | 15937 ft | 413 kts | 340° |
| 2026-05-06 19:11 | 40.50822 | 2.00266 | 15934 ft | 413 kts | 340° |
| 2026-05-06 19:11 | 40.53577 | 1.99117 | 15935 ft | 413 kts | 340° |
| 2026-05-06 19:12 | 40.56283 | 1.97987 | 15768 ft | 406 kts | 340° |
| 2026-05-06 19:12 | 40.58934 | 1.96876 | 14996 ft | 406 kts | 340° |
| 2026-05-06 19:12 | 40.61638 | 1.95739 | 14167 ft | 405 kts | 340° |
| 2026-05-06 19:12 | 40.63408 | 1.95028 | 13726 ft | 403 kts | 344° |
| 2026-05-06 19:13 | 40.67120 | 1.94989 | 12745 ft | 405 kts | 13° |
| 2026-05-06 19:13 | 40.69681 | 1.96456 | 12137 ft | 401 kts | 26° |
| 2026-05-06 19:13 | 40.72134 | 1.98185 | 11536 ft | 396 kts | 26° |
| 2026-05-06 19:13 | 40.74526 | 1.99846 | 11090 ft | 386 kts | 26° |
| 2026-05-06 19:14 | 40.76857 | 2.01429 | 10854 ft | 372 kts | 25° |
| 2026-05-06 19:14 | 40.79126 | 2.02943 | 10630 ft | 357 kts | 25° |
| 2026-05-06 19:14 | 40.81310 | 2.04383 | 10442 ft | 343 kts | 25° |
| 2026-05-06 19:14 | 40.83414 | 2.05762 | 10281 ft | 330 kts | 24° |
| 2026-05-06 19:15 | 40.85433 | 2.07080 | 10148 ft | 316 kts | 24° |
| 2026-05-06 19:15 | 40.87363 | 2.08338 | 10047 ft | 302 kts | 24° |
| 2026-05-06 19:15 | 40.89209 | 2.09541 | 9963 ft | 289 kts | 24° |
| 2026-05-06 19:15 | 40.90977 | 2.10691 | 9682 ft | 285 kts | 24° |
| 2026-05-06 19:16 | 40.92751 | 2.11844 | 9350 ft | 283 kts | 24° |
| 2026-05-06 19:16 | 40.94518 | 2.12994 | 9029 ft | 280 kts | 24° |
| 2026-05-06 19:16 | 40.96261 | 2.14128 | 8718 ft | 277 kts | 24° |
| 2026-05-06 19:16 | 40.97974 | 2.15244 | 8417 ft | 274 kts | 24° |
| 2026-05-06 19:17 | 40.99677 | 2.16354 | 8113 ft | 272 kts | 24° |
| 2026-05-06 19:17 | 41.01368 | 2.17457 | 7811 ft | 270 kts | 24° |
| 2026-05-06 19:17 | 41.03059 | 2.18562 | 7510 ft | 267 kts | 24° |
| 2026-05-06 19:17 | 41.04701 | 2.19635 | 7221 ft | 265 kts | 24° |
| 2026-05-06 19:18 | 41.06347 | 2.20712 | 6927 ft | 263 kts | 24° |
| 2026-05-06 19:18 | 41.07979 | 2.21779 | 6641 ft | 260 kts | 24° |
| 2026-05-06 19:18 | 41.09601 | 2.22840 | 6351 ft | 258 kts | 24° |
| 2026-05-06 19:18 | 41.11204 | 2.23887 | 6067 ft | 261 kts | 24° |
| 2026-05-06 19:19 | 41.12864 | 2.25003 | 5755 ft | 269 kts | 30° |
| 2026-05-06 19:19 | 41.14249 | 2.26668 | 5434 ft | 272 kts | 48° |
| 2026-05-06 19:19 | 41.15432 | 2.28632 | 5110 ft | 272 kts | 51° |
| 2026-05-06 19:19 | 41.16572 | 2.30625 | 4782 ft | 271 kts | 52° |
| 2026-05-06 19:20 | 41.17697 | 2.32606 | 4461 ft | 270 kts | 52° |
| 2026-05-06 19:20 | 41.18837 | 2.34604 | 4141 ft | 269 kts | 52° |
| 2026-05-06 19:20 | 41.19964 | 2.36571 | 3986 ft | 268 kts | 52° |
| 2026-05-06 19:20 | 41.21089 | 2.38531 | 3982 ft | 269 kts | 52° |
| 2026-05-06 19:21 | 41.22215 | 2.40494 | 3980 ft | 269 kts | 52° |
| 2026-05-06 19:21 | 41.23364 | 2.42500 | 3980 ft | 270 kts | 52° |
| 2026-05-06 19:21 | 41.24490 | 2.44469 | 3982 ft | 270 kts | 52° |
| 2026-05-06 19:21 | 41.25621 | 2.46443 | 3979 ft | 269 kts | 52° |
| 2026-05-06 19:22 | 41.26913 | 2.48218 | 3949 ft | 266 kts | 32° |
| 2026-05-06 19:22 | 41.28615 | 2.49054 | 3688 ft | 261 kts | 4° |
| 2026-05-06 19:22 | 41.30394 | 2.48726 | 3259 ft | 260 kts | 338° |
| 2026-05-06 19:22 | 41.32049 | 2.47769 | 3005 ft | 259 kts | 333° |
| 2026-05-06 19:23 | 41.33673 | 2.46696 | 2986 ft | 262 kts | 332° |
| 2026-05-06 19:23 | 41.35309 | 2.45587 | 2984 ft | 264 kts | 332° |
| 2026-05-06 19:23 | 41.36947 | 2.44473 | 2980 ft | 263 kts | 332° |
| 2026-05-06 19:23 | 41.38530 | 2.43249 | 2967 ft | 261 kts | 318° |
| 2026-05-06 19:24 | 41.39499 | 2.41270 | 2840 ft | 255 kts | 282° |
| 2026-05-06 19:24 | 41.39474 | 2.38999 | 2690 ft | 244 kts | 255° |
| 2026-05-06 19:24 | 41.39019 | 2.36841 | 2498 ft | 237 kts | 253° |
| 2026-05-06 19:24 | 41.38621 | 2.34760 | 2311 ft | 230 kts | 253° |
| 2026-05-06 19:25 | 41.38150 | 2.32786 | 2282 ft | 216 kts | 249° |
| 2026-05-06 19:25 | 41.37631 | 2.30982 | 2271 ft | 201 kts | 246° |
| 2026-05-06 19:25 | 41.37110 | 2.29357 | 2330 ft | 181 kts | 245° |
| 2026-05-06 19:25 | 41.36615 | 2.27893 | 2273 ft | 163 kts | 244° |
| 2026-05-06 19:26 | 41.36163 | 2.26586 | 2255 ft | 152 kts | 244° |
| 2026-05-06 19:26 | 41.35721 | 2.25315 | 2310 ft | 153 kts | 244° |
| 2026-05-06 19:26 | 41.35273 | 2.24027 | 2189 ft | 153 kts | 244° |
| 2026-05-06 19:26 | 41.34834 | 2.22761 | 1988 ft | 145 kts | 244° |
| 2026-05-06 19:27 | 41.34427 | 2.21579 | 1779 ft | 139 kts | 243° |
| 2026-05-06 19:27 | 41.34024 | 2.20413 | 1604 ft | 139 kts | 243° |
| 2026-05-06 19:27 | 41.33620 | 2.19244 | 1429 ft | 138 kts | 244° |
| 2026-05-06 19:27 | 41.33223 | 2.18087 | 1257 ft | 138 kts | 243° |
| 2026-05-06 19:28 | 41.32823 | 2.16926 | 1078 ft | 137 kts | 244° |
| 2026-05-06 19:28 | 41.32426 | 2.15767 | 896 ft | 137 kts | 244° |
| 2026-05-06 19:28 | 41.32033 | 2.14612 | 728 ft | 137 kts | 244° |
| 2026-05-06 19:28 | 41.31638 | 2.13467 | 545 ft | 136 kts | 244° |
| 2026-05-06 19:29 | 41.31242 | 2.12315 | 356 ft | 136 kts | 244° |
| 2026-05-06 19:29 | 41.30851 | 2.11168 | 180 ft | 135 kts | 244° |
| 2026-05-06 19:29 | 41.30456 | 2.10024 | 34 ft | 135 kts | 244° |
| 2026-05-06 19:29 | 41.30092 | 2.08976 | 17 ft | 112 kts | 248° |
| 2026-05-06 19:30 | 41.29840 | 2.08237 | 22 ft | 59 kts | 253° |
| 2026-05-06 19:30 | 41.29753 | 2.07900 | 22 ft | 25 kts | 264° |
| 2026-05-06 19:30 | 41.29755 | 2.07718 | 21 ft | 14 kts | 275° |
| 2026-05-06 19:30 | 41.29784 | 2.07621 | 20 ft | 8 kts | 330° |
| 2026-05-06 19:31 | 41.29818 | 2.07605 | 21 ft | 2 kts | 353° |
| 2026-05-06 19:31 | 41.29830 | 2.07603 | 22 ft | 1 kts | 350° |
| 2026-05-06 19:31 | 41.29849 | 2.07600 | 22 ft | 1 kts | 21° |
| 2026-05-06 19:32 | 41.29859 | 2.07605 | 22 ft | 1 kts | 17° |
| 2026-05-06 19:32 | 41.29874 | 2.07587 | 22 ft | 6 kts | 310° |
| 2026-05-06 19:32 | 41.29919 | 2.07545 | 22 ft | 8 kts | 334° |
| 2026-05-06 19:32 | 41.29966 | 2.07500 | 22 ft | 7 kts | 290° |
| 2026-05-06 19:33 | 41.29978 | 2.07438 | 23 ft | 6 kts | 321° |
| 2026-05-06 19:33 | 41.30003 | 2.07434 | 23 ft | 3 kts | 30° |
| 2026-05-06 19:33 | 41.30028 | 2.07443 | 24 ft | 4 kts | 15° |
| 2026-05-06 19:33 | 41.30047 | 2.07450 | 24 ft | 0 kts | 15° |